Rawalpindi, Pakistan
Current Conditions -  °F | °C
As of 11:00 AM on Tuesday 21 Oct 2014 (Local Time) from OPRN Reporting Station
Clear Clear  
Wind Chill: 26°   Ceiling: Unl
Heat Index: 27°   Visibility: 4mi
Dew Point: 17°   Wind: 0mph
Humidity: 57%   Direction: NA
Pressure: NA   Gusts: NA
Location:  33.6°N, 73.04°E
Report Text: OPRN 210600Z 00000KT 6000 SKC 26/17 Q1019.1/30.09
Loading
Personal Weather Stations






























Interactive Weather Map
Tropical Storm Tracking
New forecast layout! Learn more

10-Day Weather Forecast

Advertisements
Track Severe Weather on mobile